HAO weather

Butler Co Regional Airport - Hogan Field
Hamilton, Ohio, United States

Public forecast

Using degrees Fahrenheit for public forecast. Weather courtesy of forecast.io.

METAR (pilot weather report)

Retrieved 2019/09/19 19:53 UTC (44 minutes ago):

KHAO 191953Z AUTO VRB04KT 10SM FEW048 30/19 A3008 RMK AO2 SLP182 T03000189

TAF (pilot weather forecast)

Closest forecast is Cincinnati Municipal Airport Lunken Field, 16.4 nm (30.3 km) SSE. Retrieved 2019/09/19 18:40 UTC (2 hours ago):

TAF KLUK 191738Z 1918/2018 VRB04KT P6SM FEW050 SCT250 FM201300 19005KT P6SM SCT060 SCT250